KRST/RST METAR and TAF weather

Enter ICAO airport designator
Station Type Date Time Source
KRST METAR 2020/07/06 19:54 UTC NOAA

KRST 061954Z 26010KT 10SM CLR 31/21 A2999 RMK AO2 SLP145 T03110211


Station Type Date Time Source
KRST Decoded METAR 2020/07/06 19:54 UTC NOAA

ROCHESTER INTERNATIONAL AIRPORT , MN, United States (KRST) 43-54N 092-30W 403M
Jul 06, 2020 - 03:54 PM EDT / 2020.07.06 1954 UTC
Wind: from the W (260 degrees) at 12 MPH (10 KT):0
Visibility: 10 mile(s):0
Sky conditions: clear
Temperature: 88.0 F (31.1 C)
Dew Point: 70.0 F (21.1 C)
Relative Humidity: 55%
Pressure (altimeter): 29.99 in. Hg (1015 hPa)
ob: KRST 061954Z 26010KT 10SM CLR 31/21 A2999 RMK AO2 SLP145 T03110211
cycle: 20

Station Type Date Time Source
KRST TAF 2020/07/06 18:27 UTC NOAA

TAF KRST 061722Z 0618/0718 24008KT P6SM SCT050
FM062300 22007KT P6SM VCTS BKN050CB
FM070300 22005KT P6SM SCT050 BKN150
FM071200 24005KT P6SM VCSH BKN070

Example: see airport list